sensor_id;sensor_type;location;lat;lon;timestamp;P1;durP1;ratioP1;P2;durP2;ratioP2
42196;SDS011;27866;48.146;17.098;2023-03-12T00:02:47;9.57;;;6.50;;
42196;SDS011;27866;48.146;17.098;2023-03-12T00:06:58;9.50;;;5.72;;
42196;SDS011;27866;48.146;17.098;2023-03-12T00:11:11;9.45;;;6.13;;
42196;SDS011;27866;48.146;17.098;2023-03-12T00:15:25;10.20;;;6.30;;
42196;SDS011;27866;48.146;17.098;2023-03-12T00:19:37;14.15;;;6.47;;
42196;SDS011;27866;48.146;17.098;2023-03-12T00:23:49;12.00;;;6.65;;
42196;SDS011;27866;48.146;17.098;2023-03-12T00:28:01;9.48;;;6.35;;
42196;SDS011;27866;48.146;17.098;2023-03-12T00:32:12;12.57;;;7.20;;
42196;SDS011;27866;48.146;17.098;2023-03-12T00:36:24;9.73;;;6.80;;
42196;SDS011;27866;48.146;17.098;2023-03-12T00:40:39;10.10;;;6.78;;
42196;SDS011;27866;48.146;17.098;2023-03-12T00:44:51;13.82;;;7.28;;
42196;SDS011;27866;48.146;17.098;2023-03-12T00:49:02;9.43;;;6.60;;
42196;SDS011;27866;48.146;17.098;2023-03-12T00:53:13;14.10;;;7.60;;
42196;SDS011;27866;48.146;17.098;2023-03-12T00:57:24;12.80;;;7.47;;
42196;SDS011;27866;48.146;17.098;2023-03-12T01:01:36;11.45;;;7.28;;
42196;SDS011;27866;48.146;17.098;2023-03-12T01:05:47;9.95;;;5.55;;
42196;SDS011;27866;48.146;17.098;2023-03-12T01:10:03;10.88;;;7.13;;
42196;SDS011;27866;48.146;17.098;2023-03-12T01:14:16;12.38;;;7.05;;
42196;SDS011;27866;48.146;17.098;2023-03-12T01:18:28;13.35;;;6.72;;
42196;SDS011;27866;48.146;17.098;2023-03-12T01:22:39;12.45;;;6.90;;
42196;SDS011;27866;48.146;17.098;2023-03-12T01:26:50;13.50;;;6.95;;
42196;SDS011;27866;48.146;17.098;2023-03-12T01:31:06;12.93;;;7.25;;
42196;SDS011;27866;48.146;17.098;2023-03-12T01:35:19;13.95;;;7.50;;
42196;SDS011;27866;48.146;17.098;2023-03-12T01:39:30;12.20;;;7.15;;
42196;SDS011;27866;48.146;17.098;2023-03-12T01:43:42;12.52;;;6.82;;
42196;SDS011;27866;48.146;17.098;2023-03-12T01:47:55;12.50;;;7.07;;
42196;SDS011;27866;48.146;17.098;2023-03-12T01:52:08;12.10;;;7.35;;
42196;SDS011;27866;48.146;17.098;2023-03-12T01:56:29;11.68;;;7.00;;
42196;SDS011;27866;48.146;17.098;2023-03-12T02:00:44;16.00;;;7.20;;
42196;SDS011;27866;48.146;17.098;2023-03-12T02:05:04;13.00;;;7.05;;
42196;SDS011;27866;48.146;17.098;2023-03-12T02:09:23;12.48;;;6.95;;
42196;SDS011;27866;48.146;17.098;2023-03-12T02:13:35;11.60;;;7.40;;
42196;SDS011;27866;48.146;17.098;2023-03-12T02:17:47;10.52;;;6.90;;
42196;SDS011;27866;48.146;17.098;2023-03-12T02:21:58;12.32;;;7.32;;
42196;SDS011;27866;48.146;17.098;2023-03-12T02:26:09;12.35;;;6.47;;
42196;SDS011;27866;48.146;17.098;2023-03-12T02:30:22;12.50;;;6.88;;
42196;SDS011;27866;48.146;17.098;2023-03-12T02:34:33;13.25;;;7.05;;
42196;SDS011;27866;48.146;17.098;2023-03-12T02:38:49;11.00;;;6.93;;
42196;SDS011;27866;48.146;17.098;2023-03-12T02:43:04;13.27;;;7.00;;
42196;SDS011;27866;48.146;17.098;2023-03-12T02:47:17;11.70;;;6.65;;
42196;SDS011;27866;48.146;17.098;2023-03-12T02:51:28;9.68;;;6.43;;
42196;SDS011;27866;48.146;17.098;2023-03-12T02:55:40;13.30;;;7.30;;
42196;SDS011;27866;48.146;17.098;2023-03-12T02:59:51;13.10;;;7.10;;
42196;SDS011;27866;48.146;17.098;2023-03-12T03:04:03;9.77;;;6.28;;
42196;SDS011;27866;48.146;17.098;2023-03-12T03:08:16;11.10;;;6.77;;
42196;SDS011;27866;48.146;17.098;2023-03-12T03:12:28;15.02;;;7.53;;
42196;SDS011;27866;48.146;17.098;2023-03-12T03:16:41;9.82;;;6.18;;
42196;SDS011;27866;48.146;17.098;2023-03-12T03:20:56;11.80;;;6.72;;
42196;SDS011;27866;48.146;17.098;2023-03-12T03:25:17;13.93;;;7.38;;
42196;SDS011;27866;48.146;17.098;2023-03-12T03:33:44;10.32;;;6.25;;
42196;SDS011;27866;48.146;17.098;2023-03-12T03:37:57;11.65;;;6.68;;
42196;SDS011;27866;48.146;17.098;2023-03-12T03:42:09;11.93;;;6.97;;
42196;SDS011;27866;48.146;17.098;2023-03-12T03:46:21;11.93;;;6.43;;
42196;SDS011;27866;48.146;17.098;2023-03-12T03:50:38;12.35;;;6.72;;
42196;SDS011;27866;48.146;17.098;2023-03-12T03:54:52;13.48;;;6.75;;
42196;SDS011;27866;48.146;17.098;2023-03-12T03:59:03;12.40;;;6.90;;
42196;SDS011;27866;48.146;17.098;2023-03-12T04:03:19;10.95;;;7.20;;
42196;SDS011;27866;48.146;17.098;2023-03-12T04:07:30;15.05;;;7.10;;
42196;SDS011;27866;48.146;17.098;2023-03-12T04:11:42;13.00;;;6.80;;
42196;SDS011;27866;48.146;17.098;2023-03-12T04:15:56;11.90;;;6.72;;
42196;SDS011;27866;48.146;17.098;2023-03-12T04:20:07;14.75;;;6.82;;
42196;SDS011;27866;48.146;17.098;2023-03-12T04:24:22;13.93;;;6.70;;
42196;SDS011;27866;48.146;17.098;2023-03-12T04:28:34;13.32;;;6.60;;
42196;SDS011;27866;48.146;17.098;2023-03-12T04:32:48;9.88;;;6.30;;
42196;SDS011;27866;48.146;17.098;2023-03-12T04:37:00;11.68;;;7.13;;
42196;SDS011;27866;48.146;17.098;2023-03-12T04:41:13;13.57;;;6.67;;
42196;SDS011;27866;48.146;17.098;2023-03-12T04:45:41;12.25;;;6.78;;
42196;SDS011;27866;48.146;17.098;2023-03-12T04:49:53;10.52;;;6.18;;
42196;SDS011;27866;48.146;17.098;2023-03-12T04:54:04;10.68;;;6.32;;
42196;SDS011;27866;48.146;17.098;2023-03-12T04:58:18;11.25;;;7.00;;
42196;SDS011;27866;48.146;17.098;2023-03-12T05:02:30;11.60;;;6.65;;
42196;SDS011;27866;48.146;17.098;2023-03-12T05:06:41;14.23;;;7.72;;
42196;SDS011;27866;48.146;17.098;2023-03-12T05:10:52;14.23;;;7.22;;
42196;SDS011;27866;48.146;17.098;2023-03-12T05:15:05;13.52;;;7.20;;
42196;SDS011;27866;48.146;17.098;2023-03-12T05:19:17;13.85;;;7.55;;
42196;SDS011;27866;48.146;17.098;2023-03-12T05:23:29;10.68;;;6.70;;
42196;SDS011;27866;48.146;17.098;2023-03-12T05:27:42;12.35;;;6.95;;
42196;SDS011;27866;48.146;17.098;2023-03-12T05:31:55;13.50;;;6.60;;
42196;SDS011;27866;48.146;17.098;2023-03-12T05:36:06;11.40;;;7.00;;
42196;SDS011;27866;48.146;17.098;2023-03-12T05:40:19;14.23;;;6.80;;
42196;SDS011;27866;48.146;17.098;2023-03-12T05:44:30;11.55;;;6.57;;
42196;SDS011;27866;48.146;17.098;2023-03-12T05:48:44;13.27;;;6.53;;
42196;SDS011;27866;48.146;17.098;2023-03-12T05:52:56;12.23;;;6.40;;
42196;SDS011;27866;48.146;17.098;2023-03-12T05:57:07;9.73;;;6.05;;
42196;SDS011;27866;48.146;17.098;2023-03-12T06:01:20;11.63;;;5.70;;
42196;SDS011;27866;48.146;17.098;2023-03-12T06:05:35;8.88;;;5.28;;
42196;SDS011;27866;48.146;17.098;2023-03-12T06:09:49;9.18;;;5.72;;
42196;SDS011;27866;48.146;17.098;2023-03-12T06:14:01;11.30;;;6.13;;
42196;SDS011;27866;48.146;17.098;2023-03-12T06:18:13;8.85;;;5.10;;
42196;SDS011;27866;48.146;17.098;2023-03-12T06:22:26;7.78;;;5.10;;
42196;SDS011;27866;48.146;17.098;2023-03-12T06:26:38;7.00;;;5.18;;
42196;SDS011;27866;48.146;17.098;2023-03-12T06:30:52;7.50;;;4.70;;
42196;SDS011;27866;48.146;17.098;2023-03-12T06:35:04;8.18;;;5.25;;
42196;SDS011;27866;48.146;17.098;2023-03-12T06:39:15;8.63;;;4.93;;
42196;SDS011;27866;48.146;17.098;2023-03-12T06:43:28;7.40;;;5.00;;
42196;SDS011;27866;48.146;17.098;2023-03-12T06:47:41;6.77;;;4.50;;
42196;SDS011;27866;48.146;17.098;2023-03-12T06:51:52;8.32;;;4.65;;
42196;SDS011;27866;48.146;17.098;2023-03-12T06:56:05;8.75;;;5.22;;
42196;SDS011;27866;48.146;17.098;2023-03-12T07:00:17;5.60;;;3.92;;
42196;SDS011;27866;48.146;17.098;2023-03-12T07:04:29;7.10;;;4.57;;
42196;SDS011;27866;48.146;17.098;2023-03-12T07:08:41;7.68;;;4.70;;
42196;SDS011;27866;48.146;17.098;2023-03-12T07:12:52;6.38;;;4.65;;
42196;SDS011;27866;48.146;17.098;2023-03-12T07:17:04;8.85;;;4.90;;
42196;SDS011;27866;48.146;17.098;2023-03-12T07:21:15;6.90;;;4.18;;
42196;SDS011;27866;48.146;17.098;2023-03-12T07:25:38;7.95;;;5.03;;
42196;SDS011;27866;48.146;17.098;2023-03-12T07:29:52;7.72;;;4.82;;
42196;SDS011;27866;48.146;17.098;2023-03-12T07:34:03;7.65;;;4.60;;
42196;SDS011;27866;48.146;17.098;2023-03-12T07:38:15;8.10;;;4.60;;
42196;SDS011;27866;48.146;17.098;2023-03-12T07:42:26;8.60;;;4.53;;
42196;SDS011;27866;48.146;17.098;2023-03-12T07:46:40;6.47;;;4.57;;
42196;SDS011;27866;48.146;17.098;2023-03-12T07:50:51;7.93;;;4.80;;
42196;SDS011;27866;48.146;17.098;2023-03-12T07:55:03;7.97;;;4.28;;
42196;SDS011;27866;48.146;17.098;2023-03-12T07:59:15;7.78;;;4.80;;
42196;SDS011;27866;48.146;17.098;2023-03-12T08:03:26;7.95;;;4.38;;
42196;SDS011;27866;48.146;17.098;2023-03-12T08:07:38;8.48;;;4.13;;
42196;SDS011;27866;48.146;17.098;2023-03-12T08:11:49;8.73;;;4.03;;
42196;SDS011;27866;48.146;17.098;2023-03-12T08:16:00;6.25;;;3.63;;
42196;SDS011;27866;48.146;17.098;2023-03-12T08:20:12;5.78;;;3.58;;
42196;SDS011;27866;48.146;17.098;2023-03-12T08:24:24;7.05;;;3.53;;
42196;SDS011;27866;48.146;17.098;2023-03-12T08:28:35;10.93;;;3.95;;
42196;SDS011;27866;48.146;17.098;2023-03-12T08:32:46;7.25;;;2.80;;
42196;SDS011;27866;48.146;17.098;2023-03-12T08:36:58;5.35;;;2.75;;
42196;SDS011;27866;48.146;17.098;2023-03-12T08:41:09;4.70;;;2.80;;
42196;SDS011;27866;48.146;17.098;2023-03-12T08:45:21;5.53;;;2.78;;
42196;SDS011;27866;48.146;17.098;2023-03-12T08:49:32;4.65;;;2.75;;
42196;SDS011;27866;48.146;17.098;2023-03-12T08:53:43;5.00;;;2.95;;
42196;SDS011;27866;48.146;17.098;2023-03-12T08:57:55;4.95;;;2.67;;
42196;SDS011;27866;48.146;17.098;2023-03-12T09:02:08;5.90;;;3.10;;
42196;SDS011;27866;48.146;17.098;2023-03-12T09:06:21;4.72;;;2.63;;
42196;SDS011;27866;48.146;17.098;2023-03-12T09:10:33;5.55;;;2.83;;
42196;SDS011;27866;48.146;17.098;2023-03-12T09:14:45;5.32;;;2.70;;
42196;SDS011;27866;48.146;17.098;2023-03-12T09:18:56;6.25;;;2.60;;
42196;SDS011;27866;48.146;17.098;2023-03-12T09:23:07;5.60;;;2.47;;
42196;SDS011;27866;48.146;17.098;2023-03-12T09:27:19;4.90;;;2.28;;
42196;SDS011;27866;48.146;17.098;2023-03-12T09:31:30;6.15;;;2.30;;
42196;SDS011;27866;48.146;17.098;2023-03-12T09:35:42;4.72;;;2.30;;
42196;SDS011;27866;48.146;17.098;2023-03-12T09:39:53;4.93;;;2.50;;
42196;SDS011;27866;48.146;17.098;2023-03-12T09:44:12;4.38;;;2.20;;
42196;SDS011;27866;48.146;17.098;2023-03-12T09:48:49;4.63;;;2.22;;
42196;SDS011;27866;48.146;17.098;2023-03-12T09:57:41;3.90;;;2.30;;
42196;SDS011;27866;48.146;17.098;2023-03-12T10:01:58;7.00;;;2.30;;
42196;SDS011;27866;48.146;17.098;2023-03-12T10:06:15;3.15;;;2.00;;
42196;SDS011;27866;48.146;17.098;2023-03-12T10:10:41;5.65;;;2.10;;
42196;SDS011;27866;48.146;17.098;2023-03-12T10:30:25;3.92;;;1.90;;
42196;SDS011;27866;48.146;17.098;2023-03-12T10:34:48;3.95;;;1.80;;
42196;SDS011;27866;48.146;17.098;2023-03-12T10:39:15;3.40;;;1.70;;
42196;SDS011;27866;48.146;17.098;2023-03-12T10:43:29;4.15;;;2.00;;
42196;SDS011;27866;48.146;17.098;2023-03-12T10:47:41;4.70;;;1.95;;
42196;SDS011;27866;48.146;17.098;2023-03-12T10:51:55;4.75;;;2.40;;
42196;SDS011;27866;48.146;17.098;2023-03-12T10:56:13;4.32;;;2.05;;
42196;SDS011;27866;48.146;17.098;2023-03-12T11:00:30;3.92;;;2.00;;
42196;SDS011;27866;48.146;17.098;2023-03-12T11:04:42;2.57;;;1.80;;
42196;SDS011;27866;48.146;17.098;2023-03-12T11:09:19;3.97;;;2.03;;
42196;SDS011;27866;48.146;17.098;2023-03-12T11:13:38;3.10;;;2.10;;
42196;SDS011;27866;48.146;17.098;2023-03-12T11:17:51;4.93;;;2.28;;
42196;SDS011;27866;48.146;17.098;2023-03-12T11:22:08;5.63;;;2.08;;
42196;SDS011;27866;48.146;17.098;2023-03-12T11:26:22;4.53;;;2.10;;
42196;SDS011;27866;48.146;17.098;2023-03-12T11:30:39;3.47;;;2.00;;
42196;SDS011;27866;48.146;17.098;2023-03-12T11:34:50;3.95;;;2.30;;
42196;SDS011;27866;48.146;17.098;2023-03-12T11:44:16;3.42;;;2.10;;
42196;SDS011;27866;48.146;17.098;2023-03-12T12:07:07;4.28;;;2.20;;
42196;SDS011;27866;48.146;17.098;2023-03-12T12:16:00;4.25;;;2.15;;
42196;SDS011;27866;48.146;17.098;2023-03-12T12:35:41;6.65;;;2.63;;
42196;SDS011;27866;48.146;17.098;2023-03-12T12:39:56;3.40;;;2.10;;
42196;SDS011;27866;48.146;17.098;2023-03-12T12:44:26;3.28;;;2.10;;
42196;SDS011;27866;48.146;17.098;2023-03-12T12:53:12;3.78;;;2.10;;
42196;SDS011;27866;48.146;17.098;2023-03-12T12:58:36;3.85;;;2.70;;
42196;SDS011;27866;48.146;17.098;2023-03-12T13:07:00;5.30;;;2.40;;
42196;SDS011;27866;48.146;17.098;2023-03-12T13:11:26;4.55;;;2.55;;
42196;SDS011;27866;48.146;17.098;2023-03-12T13:15:50;4.18;;;2.63;;
42196;SDS011;27866;48.146;17.098;2023-03-12T13:20:23;4.38;;;2.45;;
42196;SDS011;27866;48.146;17.098;2023-03-12T13:33:48;3.42;;;2.50;;
42196;SDS011;27866;48.146;17.098;2023-03-12T13:38:02;5.25;;;2.63;;
42196;SDS011;27866;48.146;17.098;2023-03-12T13:46:34;4.97;;;2.67;;
42196;SDS011;27866;48.146;17.098;2023-03-12T13:59:23;4.03;;;2.20;;
42196;SDS011;27866;48.146;17.098;2023-03-12T14:03:38;3.15;;;2.05;;
42196;SDS011;27866;48.146;17.098;2023-03-12T14:08:13;4.05;;;2.40;;
42196;SDS011;27866;48.146;17.098;2023-03-12T14:12:55;5.30;;;2.58;;
42196;SDS011;27866;48.146;17.098;2023-03-12T14:17:19;5.05;;;2.83;;
42196;SDS011;27866;48.146;17.098;2023-03-12T14:21:37;5.25;;;2.50;;
42196;SDS011;27866;48.146;17.098;2023-03-12T14:25:50;5.53;;;2.42;;
42196;SDS011;27866;48.146;17.098;2023-03-12T14:30:12;5.03;;;2.92;;
42196;SDS011;27866;48.146;17.098;2023-03-12T14:34:37;5.35;;;2.72;;
42196;SDS011;27866;48.146;17.098;2023-03-12T14:39:15;4.73;;;3.20;;
42196;SDS011;27866;48.146;17.098;2023-03-12T14:43:38;5.88;;;3.08;;
42196;SDS011;27866;48.146;17.098;2023-03-12T14:47:55;7.87;;;2.93;;
42196;SDS011;27866;48.146;17.098;2023-03-12T14:52:11;6.30;;;2.50;;
42196;SDS011;27866;48.146;17.098;2023-03-12T14:56:30;7.53;;;2.97;;
42196;SDS011;27866;48.146;17.098;2023-03-12T15:00:44;5.93;;;2.63;;
42196;SDS011;27866;48.146;17.098;2023-03-12T15:05:18;25.67;;;11.88;;
42196;SDS011;27866;48.146;17.098;2023-03-12T15:09:31;12.15;;;6.43;;
42196;SDS011;27866;48.146;17.098;2023-03-12T15:13:45;7.88;;;3.88;;
42196;SDS011;27866;48.146;17.098;2023-03-12T15:17:56;8.48;;;3.30;;
42196;SDS011;27866;48.146;17.098;2023-03-12T15:22:10;5.57;;;2.92;;
42196;SDS011;27866;48.146;17.098;2023-03-12T15:26:28;4.80;;;2.58;;
42196;SDS011;27866;48.146;17.098;2023-03-12T15:30:43;5.47;;;2.40;;
42196;SDS011;27866;48.146;17.098;2023-03-12T15:34:54;4.00;;;2.63;;
42196;SDS011;27866;48.146;17.098;2023-03-12T15:43:44;4.57;;;2.33;;
42196;SDS011;27866;48.146;17.098;2023-03-12T15:48:50;5.15;;;2.60;;
42196;SDS011;27866;48.146;17.098;2023-03-12T16:01:57;10.25;;;2.40;;
42196;SDS011;27866;48.146;17.098;2023-03-12T16:06:16;8.60;;;3.22;;
42196;SDS011;27866;48.146;17.098;2023-03-12T16:10:32;5.20;;;2.57;;
42196;SDS011;27866;48.146;17.098;2023-03-12T16:14:45;6.28;;;2.85;;
42196;SDS011;27866;48.146;17.098;2023-03-12T16:18:58;7.38;;;2.92;;
42196;SDS011;27866;48.146;17.098;2023-03-12T16:23:10;4.57;;;2.53;;
42196;SDS011;27866;48.146;17.098;2023-03-12T16:27:22;5.60;;;2.83;;
42196;SDS011;27866;48.146;17.098;2023-03-12T16:31:33;7.45;;;2.42;;
42196;SDS011;27866;48.146;17.098;2023-03-12T16:35:45;4.72;;;2.67;;
42196;SDS011;27866;48.146;17.098;2023-03-12T16:39:57;4.65;;;2.72;;
42196;SDS011;27866;48.146;17.098;2023-03-12T16:44:14;4.63;;;2.35;;
42196;SDS011;27866;48.146;17.098;2023-03-12T16:48:28;5.65;;;2.70;;
42196;SDS011;27866;48.146;17.098;2023-03-12T16:52:40;6.22;;;2.47;;
42196;SDS011;27866;48.146;17.098;2023-03-12T16:56:52;4.55;;;2.42;;
42196;SDS011;27866;48.146;17.098;2023-03-12T17:01:03;5.32;;;3.05;;
42196;SDS011;27866;48.146;17.098;2023-03-12T17:05:14;6.18;;;2.47;;
42196;SDS011;27866;48.146;17.098;2023-03-12T17:09:26;5.82;;;2.47;;
42196;SDS011;27866;48.146;17.098;2023-03-12T17:13:37;7.32;;;2.95;;
42196;SDS011;27866;48.146;17.098;2023-03-12T17:17:48;5.80;;;3.00;;
42196;SDS011;27866;48.146;17.098;2023-03-12T17:22:00;5.22;;;3.28;;
42196;SDS011;27866;48.146;17.098;2023-03-12T17:26:11;6.03;;;3.03;;
42196;SDS011;27866;48.146;17.098;2023-03-12T17:30:23;8.68;;;3.22;;
42196;SDS011;27866;48.146;17.098;2023-03-12T17:34:36;5.75;;;3.30;;
42196;SDS011;27866;48.146;17.098;2023-03-12T17:38:47;5.80;;;3.13;;
42196;SDS011;27866;48.146;17.098;2023-03-12T17:42:58;6.70;;;3.38;;
42196;SDS011;27866;48.146;17.098;2023-03-12T17:47:10;7.72;;;3.00;;
42196;SDS011;27866;48.146;17.098;2023-03-12T17:51:21;5.78;;;3.20;;
42196;SDS011;27866;48.146;17.098;2023-03-12T17:55:33;7.75;;;3.53;;
42196;SDS011;27866;48.146;17.098;2023-03-12T17:59:45;5.60;;;3.15;;
42196;SDS011;27866;48.146;17.098;2023-03-12T18:03:57;6.78;;;3.47;;
42196;SDS011;27866;48.146;17.098;2023-03-12T18:08:08;6.20;;;3.20;;
42196;SDS011;27866;48.146;17.098;2023-03-12T18:12:20;5.13;;;3.28;;
42196;SDS011;27866;48.146;17.098;2023-03-12T18:16:31;10.25;;;4.43;;
42196;SDS011;27866;48.146;17.098;2023-03-12T18:20:43;11.52;;;4.07;;
42196;SDS011;27866;48.146;17.098;2023-03-12T18:24:54;7.50;;;3.83;;
42196;SDS011;27866;48.146;17.098;2023-03-12T18:29:05;6.10;;;3.60;;
42196;SDS011;27866;48.146;17.098;2023-03-12T18:33:16;7.13;;;3.70;;
42196;SDS011;27866;48.146;17.098;2023-03-12T18:37:28;8.50;;;3.83;;
42196;SDS011;27866;48.146;17.098;2023-03-12T18:41:39;7.25;;;4.40;;
42196;SDS011;27866;48.146;17.098;2023-03-12T18:45:50;8.63;;;4.30;;
42196;SDS011;27866;48.146;17.098;2023-03-12T18:50:02;5.18;;;3.55;;
42196;SDS011;27866;48.146;17.098;2023-03-12T18:54:13;7.53;;;4.05;;
42196;SDS011;27866;48.146;17.098;2023-03-12T18:58:25;7.35;;;4.35;;
42196;SDS011;27866;48.146;17.098;2023-03-12T19:02:37;7.55;;;3.90;;
42196;SDS011;27866;48.146;17.098;2023-03-12T19:06:49;7.75;;;3.92;;
42196;SDS011;27866;48.146;17.098;2023-03-12T19:11:02;7.47;;;4.38;;
42196;SDS011;27866;48.146;17.098;2023-03-12T19:15:18;6.45;;;4.40;;
42196;SDS011;27866;48.146;17.098;2023-03-12T19:19:33;8.68;;;4.35;;
42196;SDS011;27866;48.146;17.098;2023-03-12T19:23:44;9.25;;;4.40;;
42196;SDS011;27866;48.146;17.098;2023-03-12T19:27:55;9.02;;;4.60;;
42196;SDS011;27866;48.146;17.098;2023-03-12T19:32:07;8.07;;;4.65;;
42196;SDS011;27866;48.146;17.098;2023-03-12T19:36:18;7.55;;;3.97;;
42196;SDS011;27866;48.146;17.098;2023-03-12T19:40:29;8.00;;;4.63;;
42196;SDS011;27866;48.146;17.098;2023-03-12T19:44:42;10.05;;;5.45;;
42196;SDS011;27866;48.146;17.098;2023-03-12T19:48:53;8.30;;;4.90;;
42196;SDS011;27866;48.146;17.098;2023-03-12T19:53:04;9.52;;;5.60;;
42196;SDS011;27866;48.146;17.098;2023-03-12T19:57:16;8.45;;;4.68;;
42196;SDS011;27866;48.146;17.098;2023-03-12T20:01:28;7.30;;;4.40;;
42196;SDS011;27866;48.146;17.098;2023-03-12T20:05:43;9.23;;;4.70;;
42196;SDS011;27866;48.146;17.098;2023-03-12T20:09:55;9.05;;;4.55;;
42196;SDS011;27866;48.146;17.098;2023-03-12T20:14:06;10.30;;;5.07;;
42196;SDS011;27866;48.146;17.098;2023-03-12T20:18:17;11.98;;;5.30;;
42196;SDS011;27866;48.146;17.098;2023-03-12T20:22:29;10.98;;;5.55;;
42196;SDS011;27866;48.146;17.098;2023-03-12T20:26:42;14.55;;;6.40;;
42196;SDS011;27866;48.146;17.098;2023-03-12T20:30:53;15.77;;;7.07;;
42196;SDS011;27866;48.146;17.098;2023-03-12T20:35:05;13.00;;;6.90;;
42196;SDS011;27866;48.146;17.098;2023-03-12T20:39:16;12.55;;;6.40;;
42196;SDS011;27866;48.146;17.098;2023-03-12T20:43:28;14.50;;;6.85;;
42196;SDS011;27866;48.146;17.098;2023-03-12T20:47:40;10.63;;;6.47;;
42196;SDS011;27866;48.146;17.098;2023-03-12T20:51:51;9.95;;;6.65;;
42196;SDS011;27866;48.146;17.098;2023-03-12T20:56:03;14.57;;;7.53;;
42196;SDS011;27866;48.146;17.098;2023-03-12T21:00:14;10.95;;;6.93;;
42196;SDS011;27866;48.146;17.098;2023-03-12T21:04:26;9.63;;;6.85;;
42196;SDS011;27866;48.146;17.098;2023-03-12T21:08:37;14.27;;;7.47;;
42196;SDS011;27866;48.146;17.098;2023-03-12T21:12:49;22.20;;;8.75;;
42196;SDS011;27866;48.146;17.098;2023-03-12T21:17:00;14.48;;;7.50;;
42196;SDS011;27866;48.146;17.098;2023-03-12T21:21:11;13.73;;;8.00;;
42196;SDS011;27866;48.146;17.098;2023-03-12T21:25:22;11.15;;;7.20;;
42196;SDS011;27866;48.146;17.098;2023-03-12T21:29:34;12.80;;;6.80;;
42196;SDS011;27866;48.146;17.098;2023-03-12T21:33:45;10.35;;;6.57;;
42196;SDS011;27866;48.146;17.098;2023-03-12T21:37:56;12.13;;;7.18;;
42196;SDS011;27866;48.146;17.098;2023-03-12T21:42:08;11.68;;;6.80;;
42196;SDS011;27866;48.146;17.098;2023-03-12T21:46:19;8.63;;;6.82;;
42196;SDS011;27866;48.146;17.098;2023-03-12T21:50:36;12.30;;;6.72;;
42196;SDS011;27866;48.146;17.098;2023-03-12T21:54:47;11.10;;;6.43;;
42196;SDS011;27866;48.146;17.098;2023-03-12T21:58:58;8.77;;;5.82;;
42196;SDS011;27866;48.146;17.098;2023-03-12T22:03:09;11.85;;;6.10;;
42196;SDS011;27866;48.146;17.098;2023-03-12T22:07:21;10.35;;;5.82;;
42196;SDS011;27866;48.146;17.098;2023-03-12T22:11:32;9.07;;;6.35;;
42196;SDS011;27866;48.146;17.098;2023-03-12T22:15:51;10.77;;;6.00;;
42196;SDS011;27866;48.146;17.098;2023-03-12T22:20:11;10.35;;;6.47;;
42196;SDS011;27866;48.146;17.098;2023-03-12T22:24:22;8.65;;;5.50;;
42196;SDS011;27866;48.146;17.098;2023-03-12T22:28:34;10.32;;;5.32;;
42196;SDS011;27866;48.146;17.098;2023-03-12T22:32:45;8.27;;;5.32;;
42196;SDS011;27866;48.146;17.098;2023-03-12T22:36:57;8.18;;;4.93;;
42196;SDS011;27866;48.146;17.098;2023-03-12T22:45:36;9.68;;;5.45;;
42196;SDS011;27866;48.146;17.098;2023-03-12T22:49:48;8.90;;;4.85;;
42196;SDS011;27866;48.146;17.098;2023-03-12T22:54:02;8.27;;;5.55;;
42196;SDS011;27866;48.146;17.098;2023-03-12T22:58:13;10.15;;;4.95;;
42196;SDS011;27866;48.146;17.098;2023-03-12T23:02:25;8.45;;;5.70;;
42196;SDS011;27866;48.146;17.098;2023-03-12T23:06:36;9.15;;;5.45;;
42196;SDS011;27866;48.146;17.098;2023-03-12T23:10:54;8.85;;;5.63;;
42196;SDS011;27866;48.146;17.098;2023-03-12T23:15:09;11.32;;;5.13;;
42196;SDS011;27866;48.146;17.098;2023-03-12T23:19:21;10.27;;;5.45;;
42196;SDS011;27866;48.146;17.098;2023-03-12T23:23:33;8.77;;;5.57;;
42196;SDS011;27866;48.146;17.098;2023-03-12T23:27:45;7.60;;;5.32;;
42196;SDS011;27866;48.146;17.098;2023-03-12T23:31:56;7.47;;;4.78;;
42196;SDS011;27866;48.146;17.098;2023-03-12T23:36:14;11.48;;;6.00;;
42196;SDS011;27866;48.146;17.098;2023-03-12T23:40:30;12.75;;;5.45;;
42196;SDS011;27866;48.146;17.098;2023-03-12T23:44:41;9.48;;;5.47;;
42196;SDS011;27866;48.146;17.098;2023-03-12T23:48:52;7.18;;;5.32;;
42196;SDS011;27866;48.146;17.098;2023-03-12T23:53:04;10.82;;;6.13;;
42196;SDS011;27866;48.146;17.098;2023-03-12T23:57:15;6.88;;;4.93;;
